createdAt,value
2018-11-10T00:01:12.160Z,100.00
2018-11-10T00:06:15.774Z,100.00
2018-11-10T00:11:19.234Z,100.00
2018-11-10T00:16:22.924Z,100.00
2018-11-10T00:21:26.734Z,100.00
2018-11-10T00:26:30.275Z,100.00
2018-11-10T00:31:34.087Z,100.00
2018-11-10T00:36:37.728Z,100.00
2018-11-10T00:41:41.227Z,100.00
2018-11-10T00:46:44.909Z,100.00
2018-11-10T00:51:48.467Z,100.00
2018-11-10T00:56:52.101Z,100.00
2018-11-10T01:01:55.918Z,100.00
2018-11-10T01:06:59.530Z,100.00
2018-11-10T01:12:03.596Z,100.00
2018-11-10T01:17:07.242Z,100.00
2018-11-10T01:22:10.853Z,100.00
2018-11-10T01:27:18.501Z,100.00
2018-11-10T01:32:22.153Z,100.00
2018-11-10T01:37:25.807Z,100.00
2018-11-10T01:42:29.431Z,100.00
2018-11-10T01:47:33.547Z,100.00
2018-11-10T01:52:37.176Z,100.00
2018-11-10T01:57:41.630Z,100.00
2018-11-10T02:02:46.007Z,100.00
2018-11-10T02:07:50.175Z,100.00
2018-11-10T02:12:53.722Z,100.00
2018-11-10T02:17:57.336Z,100.00
2018-11-10T02:23:01.057Z,100.00
2018-11-10T02:28:04.703Z,100.00
2018-11-10T02:33:09.715Z,100.00
2018-11-10T02:38:13.329Z,100.00
2018-11-10T02:43:16.864Z,100.00
2018-11-10T02:48:20.417Z,100.00
2018-11-10T02:53:24.141Z,100.00
2018-11-10T02:58:27.644Z,100.00
2018-11-10T03:03:31.299Z,100.00
2018-11-10T03:08:34.801Z,100.00
2018-11-10T03:13:38.342Z,100.00
2018-11-10T03:18:41.877Z,100.00
2018-11-10T03:23:45.589Z,100.00
2018-11-10T03:28:49.138Z,100.00
2018-11-10T03:33:53.001Z,100.00
2018-11-10T03:38:56.869Z,100.00
2018-11-10T03:44:00.425Z,100.00
2018-11-10T03:49:04.127Z,100.00
2018-11-10T03:54:08.023Z,100.00
2018-11-10T03:59:11.808Z,100.00
2018-11-10T04:04:16.386Z,100.00
2018-11-10T04:09:20.014Z,100.00
2018-11-10T04:14:23.774Z,100.00
2018-11-10T04:19:27.296Z,100.00
2018-11-10T04:24:30.950Z,99.21
2018-11-10T04:29:34.486Z,98.58
2018-11-10T04:34:38.286Z,98.24
2018-11-10T04:39:41.851Z,94.87
2018-11-10T04:44:45.589Z,93.05
2018-11-10T04:49:49.132Z,92.96
2018-11-10T04:54:52.880Z,91.02
2018-11-10T04:59:56.505Z,92.26
2018-11-10T05:05:00.346Z,91.55
2018-11-10T05:10:08.125Z,92.49
2018-11-10T05:15:13.115Z,92.37
2018-11-10T05:20:16.683Z,92.16
2018-11-10T05:25:20.623Z,92.22
2018-11-10T05:30:26.642Z,92.64
2018-11-10T05:35:30.304Z,92.33
2018-11-10T05:40:33.963Z,92.66
2018-11-10T05:45:37.591Z,93.13
2018-11-10T05:50:41.074Z,94.55
2018-11-10T05:55:44.643Z,94.03
2018-11-10T06:00:48.257Z,94.74
2018-11-10T06:05:51.889Z,94.36
2018-11-10T06:10:55.512Z,95.13
2018-11-10T06:15:59.129Z,94.92
2018-11-10T06:21:02.727Z,94.58
2018-11-10T06:26:06.630Z,92.14
2018-11-10T06:31:10.155Z,91.21
2018-11-10T06:36:15.490Z,90.00
2018-11-10T06:41:19.185Z,87.58
2018-11-10T06:46:22.733Z,87.10
2018-11-10T06:51:26.260Z,85.71
2018-11-10T06:56:30.140Z,85.23
2018-11-10T07:01:33.805Z,81.66
2018-11-10T07:06:37.424Z,80.97
2018-11-10T07:11:41.720Z,78.11
2018-11-10T07:16:45.424Z,77.56
2018-11-10T07:21:48.930Z,77.54
2018-11-10T07:26:52.521Z,77.30
2018-11-10T07:31:56.225Z,76.47
2018-11-10T07:37:00.005Z,76.65
2018-11-10T07:42:03.575Z,76.65
2018-11-10T07:47:07.451Z,76.58
2018-11-10T07:52:10.938Z,78.44
2018-11-10T07:57:14.622Z,81.80
2018-11-10T08:02:18.206Z,83.25
2018-11-10T08:07:21.857Z,83.66
2018-11-10T08:12:25.487Z,85.78
2018-11-10T08:17:37.277Z,86.62
2018-11-10T08:22:40.942Z,89.13
2018-11-10T08:27:44.575Z,91.71
2018-11-10T08:32:48.466Z,92.13
2018-11-10T08:37:52.098Z,94.61
2018-11-10T08:42:55.717Z,97.06
2018-11-10T08:47:59.687Z,96.19
2018-11-10T08:53:03.239Z,99.60
2018-11-10T08:58:06.837Z,99.33
2018-11-10T09:03:10.465Z,100.00
2018-11-10T09:08:14.083Z,99.77
2018-11-10T09:13:17.659Z,100.00
2018-11-10T09:18:21.213Z,98.08
2018-11-10T09:23:25.401Z,98.54
2018-11-10T09:28:28.946Z,100.00
2018-11-10T09:33:32.679Z,100.00
2018-11-10T09:38:36.658Z,100.00
2018-11-10T09:43:40.287Z,100.00
2018-11-10T09:48:43.770Z,100.00
2018-11-10T09:53:49.369Z,100.00
2018-11-10T09:58:54.758Z,100.00
2018-11-10T10:03:58.609Z,100.00
2018-11-10T10:09:02.319Z,100.00
2018-11-10T10:14:06.705Z,100.00
2018-11-10T10:19:10.938Z,100.00
2018-11-10T10:24:16.956Z,100.00
2018-11-10T10:29:20.529Z,100.00
2018-11-10T10:34:24.241Z,100.00
2018-11-10T10:39:27.695Z,100.00
2018-11-10T10:44:31.340Z,100.00
2018-11-10T10:49:35.090Z,100.00
2018-11-10T10:54:39.834Z,100.00
2018-11-10T10:59:43.326Z,100.00
2018-11-10T11:04:52.281Z,100.00
2018-11-10T11:09:55.823Z,100.00
2018-11-10T11:14:59.415Z,100.00
2018-11-10T11:20:03.254Z,100.00
2018-11-10T11:25:06.887Z,100.00
2018-11-10T11:30:11.656Z,100.00
2018-11-10T11:35:15.349Z,98.40
2018-11-10T11:40:18.918Z,97.59
2018-11-10T11:45:22.474Z,95.69
2018-11-10T11:50:26.019Z,94.15
2018-11-10T11:55:29.677Z,94.52
2018-11-10T12:00:35.291Z,91.60
2018-11-10T12:05:38.830Z,89.96
2018-11-10T12:10:42.335Z,88.41
2018-11-10T12:15:45.995Z,88.09
2018-11-10T12:20:49.580Z,88.28
2018-11-10T12:25:53.255Z,89.92
2018-11-10T12:30:56.905Z,87.00
2018-11-10T12:36:00.539Z,87.42
2018-11-10T12:41:04.305Z,87.62
2018-11-10T12:46:08.018Z,87.60
2018-11-10T12:51:11.539Z,90.33
2018-11-10T12:56:15.173Z,89.38
2018-11-10T13:01:18.708Z,92.21
2018-11-10T13:06:22.362Z,92.58
2018-11-10T13:11:26.051Z,97.46
2018-11-10T13:16:29.583Z,96.70
2018-11-10T13:21:33.212Z,99.44
2018-11-10T13:26:36.886Z,98.21
2018-11-10T13:31:47.651Z,99.45
2018-11-10T13:36:51.307Z,100.00
2018-11-10T13:41:54.942Z,100.00
2018-11-10T13:46:58.790Z,99.52
2018-11-10T13:52:02.643Z,100.00
2018-11-10T13:57:06.430Z,100.00
2018-11-10T14:02:09.990Z,100.00
2018-11-10T14:07:14.692Z,100.00
2018-11-10T14:12:18.284Z,100.00
2018-11-10T14:17:21.837Z,100.00
2018-11-10T14:22:25.494Z,100.00
2018-11-10T14:27:29.102Z,100.00
2018-11-10T14:32:32.618Z,100.00
2018-11-10T14:37:36.277Z,100.00
2018-11-10T14:42:40.510Z,100.00
2018-11-10T14:47:44.608Z,100.00
2018-11-10T14:52:48.248Z,100.00
2018-11-10T14:57:51.716Z,100.00
2018-11-10T15:02:55.262Z,100.00
2018-11-10T15:07:58.847Z,100.00
2018-11-10T15:13:02.337Z,100.00
2018-11-10T15:18:06.134Z,100.00
2018-11-10T15:23:09.668Z,100.00
2018-11-10T15:28:13.268Z,100.00
2018-11-10T15:33:16.917Z,100.00
2018-11-10T15:38:20.538Z,100.00
2018-11-10T15:43:24.082Z,100.00
2018-11-10T15:48:27.720Z,100.00
2018-11-10T15:53:31.366Z,100.00
2018-11-10T15:58:35.040Z,100.00
2018-11-10T16:03:38.662Z,100.00
2018-11-10T16:08:42.343Z,100.00
2018-11-10T16:13:45.865Z,100.00
2018-11-10T16:18:49.848Z,100.00
2018-11-10T16:23:53.407Z,100.00
2018-11-10T16:28:57.398Z,100.00
2018-11-10T16:34:00.927Z,100.00
2018-11-10T16:39:05.792Z,100.00
2018-11-10T16:44:09.315Z,100.00
2018-11-10T16:49:13.854Z,100.00
2018-11-10T16:54:17.458Z,100.00
2018-11-10T16:59:21.026Z,100.00
2018-11-10T17:04:24.589Z,100.00
2018-11-10T17:09:28.133Z,100.00
2018-11-10T17:14:31.764Z,100.00
2018-11-10T17:19:35.308Z,100.00
2018-11-10T17:24:39.593Z,100.00
2018-11-10T17:29:43.193Z,100.00
2018-11-10T17:34:46.680Z,100.00
2018-11-10T17:39:50.309Z,100.00
2018-11-10T17:44:53.868Z,100.00
2018-11-10T17:49:57.519Z,100.00
2018-11-10T17:55:01.225Z,100.00
2018-11-10T18:00:05.585Z,100.00
2018-11-10T18:05:10.925Z,100.00
2018-11-10T18:10:16.009Z,100.00
2018-11-10T18:15:19.752Z,100.00
2018-11-10T18:20:23.370Z,100.00
2018-11-10T18:25:27.322Z,100.00
2018-11-10T18:30:30.917Z,100.00
2018-11-10T18:35:34.455Z,100.00
2018-11-10T18:40:38.076Z,100.00
2018-11-10T18:45:41.727Z,100.00
2018-11-10T18:50:45.665Z,100.00
2018-11-10T18:55:49.262Z,100.00
2018-11-10T19:00:52.895Z,99.97
2018-11-10T19:05:56.540Z,100.00
2018-11-10T19:11:00.175Z,98.21
2018-11-10T19:16:07.467Z,97.71
2018-11-10T19:21:11.153Z,96.04
2018-11-10T19:26:14.868Z,97.38
2018-11-10T19:31:18.838Z,96.03
2018-11-10T19:36:22.491Z,94.92
2018-11-10T19:41:26.090Z,94.37
2018-11-10T19:46:30.466Z,95.46
2018-11-10T19:51:36.551Z,95.31
2018-11-10T19:56:39.992Z,94.81
2018-11-10T20:01:43.763Z,94.70
2018-11-10T20:06:47.433Z,95.15
2018-11-10T20:11:50.974Z,93.82
2018-11-10T20:16:54.662Z,94.06
2018-11-10T20:21:58.236Z,95.52
2018-11-10T20:27:01.841Z,99.83
2018-11-10T20:32:05.656Z,100.00
2018-11-10T20:37:09.981Z,100.00
2018-11-10T20:42:14.059Z,100.00
2018-11-10T20:47:18.392Z,100.00
2018-11-10T20:52:22.089Z,100.00
2018-11-10T20:57:25.768Z,100.00
2018-11-10T21:02:30.115Z,100.00
2018-11-10T21:07:33.742Z,100.00
2018-11-10T21:12:37.375Z,100.00
2018-11-10T21:17:40.933Z,100.00
2018-11-10T21:22:44.951Z,100.00
2018-11-10T21:27:48.744Z,93.86
2018-11-10T21:32:52.705Z,45.18
2018-11-10T21:37:56.348Z,36.66
2018-11-10T21:42:59.899Z,41.54
2018-11-10T21:48:03.373Z,46.40
2018-11-10T21:53:07.255Z,46.16
2018-11-10T21:58:11.367Z,45.87
2018-11-10T22:03:14.946Z,47.70
2018-11-10T22:08:22.512Z,52.69
2018-11-10T22:13:26.733Z,43.23
2018-11-10T22:18:31.141Z,39.35
2018-11-10T22:23:35.104Z,37.77
2018-11-10T22:28:38.591Z,74.94
2018-11-10T22:33:42.145Z,77.16
2018-11-10T22:38:45.824Z,67.62
2018-11-10T22:43:49.474Z,47.70
2018-11-10T22:48:53.004Z,34.15
2018-11-10T22:53:59.337Z,30.07
2018-11-10T22:59:02.861Z,24.89
2018-11-10T23:04:06.603Z,16.30
2018-11-10T23:09:10.488Z,0.00
2018-11-10T23:14:14.113Z,0.00
2018-11-10T23:19:17.708Z,0.00
2018-11-10T23:24:21.404Z,0.00
2018-11-10T23:29:24.862Z,0.00
2018-11-10T23:34:28.413Z,0.00
2018-11-10T23:39:31.874Z,0.00
2018-11-10T23:44:35.508Z,0.00
2018-11-10T23:49:39.949Z,0.00
2018-11-10T23:54:43.497Z,0.00
2018-11-10T23:59:47.035Z,0.00
